Terminal Aerodrome Forecast
Issued by NWS

Home | Current Version | Previous Version | Text Only | Print | Product List | Glossary Off
Versions: 1 2 3 4 5 6 7 8 9 10 11 12 13 14 15 16 17

000
FTUS43 KIWX 151700
TAFSBN
TAF
KSBN 151730Z 1518/1618 25008KT P6SM -SHRA OVC040
     FM152100 31008KT 6SM -RA OVC025
      TEMPO 1523/1602 4SM -RA BR OVC015
     FM160500 33003KT 6SM BR SCT020=

USA.gov is the U.S. government's official web portal to all federal, state and local government web resources and services.